Time;durP1;ratioP1;P1;durP2;ratioP2;P2;SDS_P1;SDS_P2;PMS_P1;PMS_P2;Temp;Humidity;BMP_temperature;BMP_pressure;BME280_temperature;BME280_humidity;BME280_pressure;Samples;Min_cycle;Max_cycle;Signal;HPM_P1;HPM_P2
2023/01/21 00:00:56;;;;;;;10.47;7.10;;;5.30;68.50;4.90;96512.00;;;;5053073;28;20225;-84
2023/01/21 00:03:41;;;;;;;10.93;7.97;;;5.30;68.40;4.80;96520.00;;;;5059503;28;20451;-84
2023/01/21 00:06:09;;;;;;;10.57;7.30;;;5.30;68.30;4.80;96512.00;;;;5057539;28;20197;-84
2023/01/21 00:08:36;;;;;;;8.37;7.03;;;5.30;68.40;4.80;96517.00;;;;5060392;28;20226;-84
2023/01/21 00:11:13;;;;;;;9.33;6.60;;;5.30;68.60;4.80;96520.00;;;;5059434;28;20488;-85
2023/01/21 00:13:57;;;;;;;11.60;7.60;;;5.20;68.60;4.80;96515.00;;;;5061231;28;20200;-86
2023/01/21 00:16:27;;;;;;;10.63;7.70;;;5.20;68.70;4.80;96519.00;;;;5058929;28;20985;-84
2023/01/21 00:19:02;;;;;;;9.73;7.53;;;5.20;68.70;4.80;96516.00;;;;5058617;28;20509;-84
2023/01/21 00:21:29;;;;;;;10.13;7.77;;;5.30;68.90;4.90;96515.00;;;;5056898;28;20251;-84
2023/01/21 00:23:56;;;;;;;8.60;7.50;;;5.20;68.90;4.90;96523.00;;;;5058833;28;20463;-84
2023/01/21 00:26:33;;;;;;;10.53;6.90;;;5.30;69.10;4.90;96515.00;;;;5055918;28;20680;-84
2023/01/21 00:29:01;;;;;;;10.53;7.03;;;5.30;69.10;4.90;96513.00;;;;5056935;28;20205;-84
2023/01/21 00:31:28;;;;;;;11.73;7.93;;;5.30;68.90;4.90;96517.00;;;;5061308;28;20235;-85
2023/01/21 00:33:57;;;;;;;10.07;8.27;;;5.30;68.80;4.90;96520.00;;;;5056478;28;20220;-84
2023/01/21 00:36:28;;;;;;;11.27;7.60;;;5.30;69.40;4.90;96521.00;;;;5057497;28;20224;-83
2023/01/21 00:38:56;;;;;;;9.50;7.53;;;5.30;68.70;4.90;96512.00;;;;5053184;28;20292;-83
2023/01/21 00:41:26;;;;;;;11.47;8.10;;;5.30;68.90;4.90;96517.00;;;;5056072;28;20463;-85
2023/01/21 00:43:55;;;;;;;10.53;6.87;;;5.30;68.80;4.90;96513.00;;;;5057427;28;20447;-85
2023/01/21 00:46:35;;;;;;;10.50;7.30;;;5.30;68.50;4.90;96520.00;;;;5057602;28;20204;-85
2023/01/21 00:49:12;;;;;;;9.87;6.73;;;5.30;68.50;4.90;96519.00;;;;5058789;28;20486;-86
2023/01/21 00:52:00;;;;;;;10.10;7.77;;;5.30;68.60;4.90;96521.00;;;;5052984;28;20478;-84
2023/01/21 00:54:31;;;;;;;9.77;7.53;;;5.30;68.50;4.90;96522.00;;;;5056942;28;20250;-86
2023/01/21 00:56:59;;;;;;;10.80;7.87;;;5.30;68.40;4.90;96526.00;;;;5060355;28;20688;-86
2023/01/21 00:59:28;;;;;;;9.47;6.97;;;5.30;68.40;4.90;96526.00;;;;5051811;28;20197;-84
2023/01/21 01:02:10;;;;;;;9.60;7.10;;;5.30;68.40;4.80;96527.00;;;;5050688;28;20299;-85
2023/01/21 01:04:37;;;;;;;10.23;7.23;;;5.30;68.50;4.80;96531.00;;;;5055989;28;20452;-85
2023/01/21 01:07:04;;;;;;;9.40;6.57;;;5.30;68.50;4.80;96534.00;;;;5054432;28;20642;-84
2023/01/21 01:09:32;;;;;;;9.67;7.37;;;5.20;68.40;4.80;96538.00;;;;5054514;28;20241;-85
2023/01/21 01:11:59;;;;;;;9.03;6.57;;;5.20;68.40;4.80;96543.00;;;;5056822;28;20243;-85
2023/01/21 01:14:28;;;;;;;10.50;6.80;;;5.20;68.50;4.80;96539.00;;;;5054256;28;20194;-84
2023/01/21 01:16:55;;;;;;;11.17;7.87;;;5.20;68.40;4.80;96540.00;;;;5047239;28;20193;-84
2023/01/21 01:19:22;;;;;;;10.10;7.13;;;5.20;68.50;4.80;96532.00;;;;5055762;28;20197;-84
2023/01/21 01:21:52;;;;;;;8.23;6.63;;;5.20;68.50;4.70;96540.00;;;;5052113;28;20315;-84
2023/01/21 01:24:29;;;;;;;7.83;6.80;;;5.20;68.90;4.70;96538.00;;;;5051150;28;20235;-84
2023/01/21 01:26:59;;;;;;;8.57;7.10;;;5.20;68.30;4.70;96545.00;;;;5058574;28;20227;-85
2023/01/21 01:29:34;;;;;;;9.17;7.20;;;5.20;68.40;4.70;96543.00;;;;5051378;28;20878;-84
2023/01/21 01:32:05;;;;;;;9.60;7.47;;;5.20;68.40;4.70;96550.00;;;;5059963;28;20227;-86
2023/01/21 01:34:35;;;;;;;10.17;7.20;;;5.20;68.40;4.70;96553.00;;;;5057671;28;20957;-85
2023/01/21 01:37:03;;;;;;;9.50;6.83;;;5.20;68.50;4.70;96549.00;;;;5043741;28;20198;-84
2023/01/21 01:39:33;;;;;;;10.90;7.03;;;5.10;68.40;4.70;96553.00;;;;5051721;28;20538;-86
2023/01/21 01:42:16;;;;;;;8.57;7.10;;;5.10;68.40;4.70;96553.00;;;;5058228;28;20454;-86
2023/01/21 01:44:59;;;;;;;9.37;7.13;;;5.10;68.30;4.60;96553.00;;;;5053767;28;20208;-84
2023/01/21 01:47:35;;;;;;;10.10;7.50;;;5.10;68.40;4.60;96554.00;;;;5055243;28;20212;-87
2023/01/21 01:50:07;;;;;;;10.67;6.93;;;5.10;68.30;4.60;96549.00;;;;5053055;28;20196;-85
2023/01/21 01:52:42;;;;;;;8.70;6.97;;;5.10;68.30;4.60;96540.00;;;;5052402;28;20205;-85
2023/01/21 01:55:15;;;;;;;9.37;6.80;;;5.10;68.70;4.60;96549.00;;;;5056771;28;20228;-84
2023/01/21 01:57:49;;;;;;;8.97;6.87;;;5.10;68.70;4.60;96555.00;;;;5058872;28;20280;-84
2023/01/21 02:00:21;;;;;;;8.83;7.00;;;5.10;68.70;4.60;96544.00;;;;5055767;28;20223;-86
2023/01/21 02:05:51;;;;;;;8.83;6.77;;;5.10;68.60;4.60;96549.00;;;;4998872;28;20727;-84
2023/01/21 02:08:21;;;;;;;8.70;6.53;;;5.10;68.60;4.60;96542.00;;;;5050728;28;20200;-84
2023/01/21 02:10:52;;;;;;;9.33;6.87;;;5.10;68.50;4.60;96549.00;;;;5047535;28;20491;-85
2023/01/21 02:13:34;;;;;;;10.33;7.27;;;5.00;68.50;4.60;96552.00;;;;5054958;28;20625;-84
2023/01/21 02:16:43;;;;;;;10.67;7.00;;;5.00;68.50;4.50;96552.00;;;;5054986;28;20548;-84
2023/01/21 02:19:45;;;;;;;9.50;7.43;;;5.00;68.50;4.50;96547.00;;;;5043060;28;20658;-84
2023/01/21 02:22:27;;;;;;;9.67;6.90;;;5.00;68.50;4.50;96556.00;;;;5038270;28;20508;-84
2023/01/21 02:28:21;;;;;;;9.33;7.43;;;5.00;68.50;4.40;96553.00;;;;5092355;22;20219;-83
2023/01/21 02:31:38;;;;;;;7.17;6.13;;;4.90;68.30;4.50;96553.00;;;;5070867;28;20500;-83
2023/01/21 02:34:22;;;;;;;10.40;7.03;;;4.90;69.20;4.40;96554.00;;;;5063485;28;20279;-84
2023/01/21 02:37:07;;;;;;;9.20;7.33;;;4.90;68.40;4.40;96554.00;;;;5071034;28;20997;-84
2023/01/21 02:39:58;;;;;;;7.70;6.63;;;4.90;68.40;4.40;96560.00;;;;5067327;28;20533;-84
2023/01/21 02:42:36;;;;;;;9.37;6.93;;;4.90;68.50;4.40;96552.00;;;;5071758;28;20506;-83
2023/01/21 02:45:21;;;;;;;9.37;6.80;;;4.90;68.60;4.40;96558.00;;;;5068851;28;20446;-83
2023/01/21 02:48:04;;;;;;;8.90;6.50;;;4.90;68.70;4.40;96554.00;;;;5071424;28;20632;-83
2023/01/21 02:50:37;;;;;;;8.77;7.20;;;4.90;68.50;4.40;96552.00;;;;5075570;28;20446;-83
2023/01/21 02:53:05;;;;;;;10.10;6.87;;;4.90;68.40;4.40;96552.00;;;;5082994;28;20488;-85
2023/01/21 02:55:36;;;;;;;8.20;6.53;;;4.90;68.30;4.40;96558.00;;;;5109271;28;20473;-84
2023/01/21 02:58:09;;;;;;;8.67;7.30;;;4.90;68.40;4.40;96554.00;;;;5093639;28;20204;-83
2023/01/21 03:00:57;;;;;;;9.70;6.67;;;4.90;68.40;4.40;96555.00;;;;5086169;28;20493;-83
2023/01/21 03:03:48;;;;;;;8.00;6.93;;;4.90;68.50;4.40;96559.00;;;;5080284;28;20540;-83
2023/01/21 03:06:44;;;;;;;8.77;6.83;;;4.90;68.50;4.40;96553.00;;;;5072295;28;20232;-83
2023/01/21 03:09:23;;;;;;;8.93;7.27;;;4.90;68.50;4.40;96555.00;;;;5070179;28;20512;-82
2023/01/21 03:12:09;;;;;;;8.17;6.67;;;4.80;68.40;4.40;96555.00;;;;5072150;28;20437;-83
2023/01/21 03:17:40;;;;;;;10.23;7.27;;;4.80;68.50;4.40;96558.00;;;;5067048;28;20493;-84
2023/01/21 03:20:14;;;;;;;8.67;7.17;;;4.80;68.50;4.30;96556.00;;;;5066308;28;20454;-83
2023/01/21 03:22:44;;;;;;;8.47;7.03;;;4.80;68.60;4.30;96553.00;;;;5072104;28;20452;-83
2023/01/21 03:25:14;;;;;;;10.77;6.70;;;4.80;68.80;4.40;96560.00;;;;5072574;28;20536;-83
2023/01/21 03:27:46;;;;;;;9.70;7.43;;;4.80;68.90;4.40;96554.00;;;;5081169;28;20914;-83
2023/01/21 03:30:18;;;;;;;8.03;7.07;;;4.80;68.90;4.40;96560.00;;;;5078355;28;20478;-83
2023/01/21 03:32:49;;;;;;;9.03;7.00;;;4.80;68.90;4.40;96556.00;;;;5073801;28;20930;-84
2023/01/21 03:35:23;;;;;;;8.90;6.83;;;4.80;68.90;4.40;96550.00;;;;5071439;28;20192;-83
2023/01/21 03:37:58;;;;;;;7.20;6.47;;;4.80;69.00;4.40;96553.00;;;;5072916;28;20564;-83
2023/01/21 03:40:31;;;;;;;9.90;7.20;;;4.90;69.10;4.40;96560.00;;;;5058680;28;20446;-83
2023/01/21 03:42:58;;;;;;;8.90;7.40;;;4.90;69.20;4.40;96549.00;;;;5064666;28;20529;-83
2023/01/21 03:45:37;;;;;;;7.93;6.63;;;4.90;69.30;4.40;96551.00;;;;5071633;28;20510;-82
2023/01/21 03:48:16;;;;;;;9.17;6.97;;;4.90;69.20;4.50;96551.00;;;;5072140;28;20505;-83
2023/01/21 03:50:51;;;;;;;7.83;7.00;;;4.90;69.00;4.50;96545.00;;;;5073555;28;20448;-83
2023/01/21 03:53:20;;;;;;;8.20;7.10;;;4.90;69.10;4.40;96544.00;;;;5072456;28;20521;-83
2023/01/21 03:55:50;;;;;;;9.50;6.73;;;4.90;69.00;4.40;96543.00;;;;5071012;28;20569;-82
2023/01/21 03:58:17;;;;;;;8.63;6.70;;;4.90;69.00;4.40;96544.00;;;;5082550;28;20451;-83
2023/01/21 04:00:45;;;;;;;8.93;6.60;;;4.90;69.00;4.40;96546.00;;;;5071228;28;20454;-84
2023/01/21 04:03:12;;;;;;;8.27;6.97;;;4.90;69.00;4.40;96539.00;;;;5071689;28;20250;-84
2023/01/21 04:05:39;;;;;;;8.00;7.00;;;4.90;69.00;4.40;96537.00;;;;5071380;28;20286;-82
2023/01/21 04:08:06;;;;;;;8.70;6.73;;;4.90;69.10;4.40;96540.00;;;;5071730;28;20219;-83
2023/01/21 04:10:35;;;;;;;9.00;6.87;;;4.90;69.10;4.40;96530.00;;;;5071722;28;20477;-82
2023/01/21 04:13:02;;;;;;;8.80;6.70;;;4.90;69.10;4.40;96529.00;;;;5071665;28;20531;-83
2023/01/21 04:15:29;;;;;;;8.60;6.90;;;4.70;68.90;4.40;96529.00;;;;5071251;28;20458;-83
2023/01/21 04:17:56;;;;;;;7.77;6.50;;;4.90;68.90;4.40;96528.00;;;;5069491;28;20480;-84
2023/01/21 04:20:23;;;;;;;9.47;7.63;;;4.90;68.90;4.40;96535.00;;;;5068444;28;21015;-83
2023/01/21 04:22:50;;;;;;;7.70;6.67;;;4.80;68.80;4.40;96527.00;;;;5071416;28;20537;-83
2023/01/21 04:25:17;;;;;;;8.63;6.27;;;4.80;68.70;4.30;96530.00;;;;5075541;28;20479;-83
2023/01/21 04:27:46;;;;;;;8.13;6.97;;;4.80;68.50;4.30;96532.00;;;;5074345;28;21245;-84
2023/01/21 04:30:13;;;;;;;9.77;6.87;;;4.80;68.60;4.30;96539.00;;;;5068819;28;20477;-84
2023/01/21 04:32:40;;;;;;;7.70;6.63;;;4.80;68.60;4.30;96533.00;;;;5074672;28;20438;-83
2023/01/21 04:35:09;;;;;;;7.70;6.33;;;4.80;68.70;4.30;96529.00;;;;5074444;28;20518;-84
2023/01/21 04:37:36;;;;;;;8.53;6.57;;;4.70;68.70;4.30;96544.00;;;;5071421;28;20517;-83
2023/01/21 04:40:03;;;;;;;7.00;6.30;;;4.70;68.70;4.30;96540.00;;;;5054184;28;20283;-83
2023/01/21 04:42:30;;;;;;;10.00;7.27;;;4.70;68.80;4.20;96541.00;;;;5072681;28;20249;-83
2023/01/21 04:44:59;;;;;;;9.00;6.83;;;4.70;68.70;4.20;96543.00;;;;5060454;28;20529;-83
2023/01/21 04:47:26;;;;;;;9.40;7.60;;;4.70;68.70;4.20;96549.00;;;;5074121;28;20505;-83
2023/01/21 04:49:53;;;;;;;8.33;6.70;;;4.70;68.80;4.20;96549.00;;;;5075723;28;20545;-83
2023/01/21 04:52:20;;;;;;;9.53;6.77;;;4.70;68.60;4.20;96544.00;;;;5073451;28;20658;-83
2023/01/21 04:54:47;;;;;;;8.10;6.40;;;4.70;68.50;4.20;96544.00;;;;5073683;28;20462;-83
2023/01/21 04:57:14;;;;;;;7.73;6.77;;;4.70;68.50;4.20;96550.00;;;;5074292;28;20488;-82
2023/01/21 04:59:42;;;;;;;9.23;7.47;;;4.60;68.50;4.20;96549.00;;;;5071879;28;21168;-83
2023/01/21 05:02:10;;;;;;;7.93;6.70;;;4.60;68.50;4.10;96545.00;;;;5069480;28;20533;-83
2023/01/21 05:04:37;;;;;;;8.93;6.43;;;4.60;68.60;4.10;96540.00;;;;5073682;28;20438;-83
2023/01/21 05:07:04;;;;;;;9.20;7.23;;;4.60;68.60;4.10;96543.00;;;;5073609;28;20488;-84
2023/01/21 05:09:31;;;;;;;9.97;7.13;;;4.70;68.80;4.10;96552.00;;;;5078771;28;20441;-83
2023/01/21 05:11:58;;;;;;;8.93;7.03;;;4.60;68.70;4.10;96550.00;;;;5079955;28;20816;-83
2023/01/21 05:14:25;;;;;;;9.30;6.90;;;4.60;68.40;4.10;96548.00;;;;5074275;28;20537;-83
2023/01/21 05:16:53;;;;;;;9.63;6.83;;;4.60;68.30;4.10;96554.00;;;;5073833;28;20623;-84
2023/01/21 05:19:21;;;;;;;7.90;7.10;;;4.60;68.30;4.00;96562.00;;;;5086091;22;20304;-81
2023/01/21 05:21:48;;;;;;;8.67;7.03;;;4.50;68.40;4.00;96559.00;;;;5076920;28;20434;-82
2023/01/21 05:24:15;;;;;;;7.60;6.80;;;4.50;68.40;4.00;96562.00;;;;5077706;28;20795;-81
2023/01/21 05:26:43;;;;;;;8.43;7.53;;;4.50;68.40;4.00;96562.00;;;;5067964;28;20475;-81
2023/01/21 05:29:10;;;;;;;8.10;6.50;;;4.50;68.40;4.00;96563.00;;;;5075711;28;20465;-81
2023/01/21 05:31:37;;;;;;;8.90;7.80;;;4.50;68.40;4.00;96563.00;;;;5077462;28;20456;-81
2023/01/21 05:34:05;;;;;;;8.20;6.50;;;4.50;68.30;4.00;96561.00;;;;5074899;28;20526;-81
2023/01/21 05:36:33;;;;;;;6.97;6.13;;;4.50;68.30;4.00;96562.00;;;;5078072;28;20513;-81
2023/01/21 05:39:00;;;;;;;7.77;6.57;;;4.50;68.40;4.00;96566.00;;;;5076455;28;20521;-81
2023/01/21 05:41:27;;;;;;;8.50;7.00;;;4.50;68.30;4.00;96555.00;;;;5076855;28;20466;-81
2023/01/21 05:43:54;;;;;;;8.80;6.50;;;4.50;68.20;3.90;96556.00;;;;5077239;28;20434;-81
2023/01/21 05:46:22;;;;;;;7.57;6.17;;;4.50;68.10;3.90;96562.00;;;;5077242;28;20477;-80
2023/01/21 05:48:49;;;;;;;8.17;7.37;;;4.40;68.00;3.90;96557.00;;;;5085295;28;20652;-81
2023/01/21 05:51:16;;;;;;;9.10;6.87;;;4.40;68.20;3.90;96557.00;;;;5070966;28;20461;-81
2023/01/21 05:53:45;;;;;;;8.20;6.83;;;4.40;68.20;3.90;96569.00;;;;5074059;28;20500;-80
2023/01/21 05:56:12;;;;;;;8.60;6.50;;;4.40;68.30;3.80;96561.00;;;;5088161;28;20481;-80
2023/01/21 05:58:39;;;;;;;7.40;6.60;;;4.30;68.20;3.80;96559.00;;;;5077517;28;20506;-81
2023/01/21 06:01:06;;;;;;;7.60;6.20;;;4.30;68.20;3.80;96559.00;;;;5070445;28;20486;-81
2023/01/21 06:03:34;;;;;;;8.70;6.30;;;4.30;68.00;3.80;96560.00;;;;5076386;28;20469;-83
2023/01/21 06:06:01;;;;;;;6.90;5.77;;;4.30;68.10;3.70;96558.00;;;;5066127;28;20924;-81
2023/01/21 06:08:28;;;;;;;7.73;6.33;;;4.30;68.00;3.70;96557.00;;;;5074978;28;20485;-81
2023/01/21 06:10:57;;;;;;;8.27;6.87;;;4.20;67.90;3.60;96555.00;;;;5068245;28;20437;-81
2023/01/21 06:13:24;;;;;;;8.17;7.03;;;4.20;67.90;3.60;96556.00;;;;5076279;28;20497;-81
2023/01/21 06:15:55;;;;;;;7.20;5.63;;;4.20;68.10;3.60;96554.00;;;;5074713;28;20537;-81
2023/01/21 06:18:22;;;;;;;6.87;6.20;;;4.20;68.20;3.60;96557.00;;;;5072102;28;20480;-81
2023/01/21 06:20:49;;;;;;;7.17;6.40;;;4.10;68.10;3.60;96554.00;;;;5062871;28;20449;-81
2023/01/21 06:23:16;;;;;;;12.23;6.50;;;4.10;68.10;3.60;96560.00;;;;5075054;28;20462;-80
2023/01/21 06:25:43;;;;;;;7.07;6.07;;;4.10;68.10;3.50;96558.00;;;;5074685;28;20519;-81
2023/01/21 06:28:13;;;;;;;8.17;6.83;;;4.10;68.20;3.50;96559.00;;;;5071697;28;20553;-80
2023/01/21 06:30:40;;;;;;;7.80;6.67;;;4.10;68.10;3.50;96562.00;;;;5082856;28;20516;-81
2023/01/21 06:33:07;;;;;;;6.97;5.97;;;4.00;68.10;3.50;96561.00;;;;5073945;28;20546;-81
2023/01/21 06:35:35;;;;;;;7.93;6.43;;;4.00;68.10;3.50;96561.00;;;;5075264;28;20542;-81
2023/01/21 06:38:02;;;;;;;6.80;5.80;;;4.00;68.10;3.50;96566.00;;;;5071695;28;20482;-81
2023/01/21 06:40:30;;;;;;;7.90;6.20;;;4.00;68.10;3.40;96567.00;;;;5071659;28;20474;-81
2023/01/21 06:42:57;;;;;;;7.83;6.33;;;4.00;68.00;3.40;96562.00;;;;5075946;28;20466;-81
2023/01/21 06:45:25;;;;;;;7.13;6.43;;;3.90;67.90;3.40;96560.00;;;;5075046;28;20474;-81
2023/01/21 06:47:52;;;;;;;7.33;6.10;;;3.90;67.90;3.30;96560.00;;;;5072686;28;20485;-81
2023/01/21 06:50:20;;;;;;;8.07;6.20;;;3.90;68.00;3.30;96562.00;;;;5067601;28;20474;-80
2023/01/21 06:52:49;;;;;;;8.07;6.43;;;3.90;68.20;3.30;96560.00;;;;5060350;28;20450;-81
2023/01/21 06:55:16;;;;;;;7.80;6.27;;;3.90;68.20;3.30;96562.00;;;;5058786;28;20530;-81
2023/01/21 06:57:44;;;;;;;7.67;6.77;;;3.90;68.20;3.30;96568.00;;;;5066788;28;20485;-81
2023/01/21 07:00:14;;;;;;;7.33;6.07;;;3.80;68.30;3.30;96564.00;;;;5068494;28;20470;-81
2023/01/21 07:02:42;;;;;;;8.67;7.03;;;3.80;68.50;3.30;96569.00;;;;5067406;28;20469;-81
2023/01/21 07:05:09;;;;;;;9.77;6.77;;;3.80;68.60;3.30;96565.00;;;;5064762;28;20477;-81
2023/01/21 07:07:37;;;;;;;7.93;6.70;;;3.80;68.80;3.30;96578.00;;;;5064860;28;20442;-80
2023/01/21 07:10:05;;;;;;;9.03;6.93;;;3.80;68.70;3.30;96577.00;;;;5070744;28;20458;-81
2023/01/21 07:12:32;;;;;;;8.20;6.97;;;3.80;68.60;3.30;96569.00;;;;5070182;28;20566;-79
2023/01/21 07:14:59;;;;;;;7.40;6.30;;;3.80;68.50;3.30;96578.00;;;;5072296;28;20485;-81
2023/01/21 07:17:26;;;;;;;8.77;6.73;;;3.80;68.50;3.40;96579.00;;;;5072574;28;20478;-85
2023/01/21 07:19:55;;;;;;;7.97;6.43;;;3.80;68.60;3.40;96578.00;;;;5072070;28;20556;-85
2023/01/21 07:22:22;;;;;;;8.60;6.80;;;3.80;68.80;3.50;96584.00;;;;5070523;28;20465;-85
2023/01/21 07:24:49;;;;;;;8.43;6.80;;;3.80;68.90;3.50;96589.00;;;;5067685;28;20477;-85
2023/01/21 07:27:16;;;;;;;8.93;6.80;;;3.90;68.80;3.60;96596.00;;;;5071589;28;20505;-84
2023/01/21 07:29:43;;;;;;;10.33;8.30;;;3.90;68.80;3.60;96599.00;;;;5071729;28;21108;-85
2023/01/21 07:32:11;;;;;;;9.33;7.53;;;3.90;68.70;3.70;96598.00;;;;5069475;28;20561;-84
2023/01/21 07:34:38;;;;;;;11.00;7.30;;;4.00;68.60;3.70;96596.00;;;;5072506;28;20458;-85
2023/01/21 07:37:06;;;;;;;10.20;8.00;;;4.00;68.70;3.70;96599.00;;;;5072660;28;20545;-86
2023/01/21 07:39:33;;;;;;;9.27;7.27;;;4.00;68.50;3.80;96610.00;;;;5071067;28;20465;-86
2023/01/21 07:42:01;;;;;;;7.97;6.70;;;4.10;68.60;3.80;96607.00;;;;5056967;28;20993;-85
2023/01/21 07:44:28;;;;;;;9.63;7.03;;;4.10;68.50;3.80;96610.00;;;;5064126;28;20900;-86
2023/01/21 07:46:55;;;;;;;9.23;7.30;;;4.10;68.30;3.90;96613.00;;;;5072597;28;20470;-86
2023/01/21 07:49:22;;;;;;;9.57;8.30;;;4.10;68.50;3.90;96619.00;;;;5072592;28;20450;-85
2023/01/21 07:51:50;;;;;;;9.83;8.17;;;4.20;68.50;3.90;96612.00;;;;5071915;28;20442;-86
2023/01/21 07:54:18;;;;;;;11.67;7.07;;;4.20;68.50;4.00;96615.00;;;;5066225;28;20936;-85
2023/01/21 07:56:45;;;;;;;11.07;7.37;;;4.30;68.70;4.00;96611.00;;;;5063639;28;20548;-85
2023/01/21 07:59:13;;;;;;;10.50;7.63;;;4.30;68.50;4.10;96611.00;;;;5069341;28;20901;-86
2023/01/21 08:01:41;;;;;;;10.60;7.93;;;4.30;68.30;4.10;96616.00;;;;5065387;28;20446;-86
2023/01/21 08:04:08;;;;;;;9.83;7.50;;;4.30;68.20;4.10;96618.00;;;;5056023;28;20523;-86
2023/01/21 08:06:36;;;;;;;10.57;7.80;;;4.30;68.00;4.10;96618.00;;;;5069457;28;20525;-86
2023/01/21 08:09:04;;;;;;;9.97;7.63;;;4.40;68.10;4.10;96619.00;;;;5069693;28;20466;-86
2023/01/21 08:11:32;;;;;;;9.80;7.67;;;4.40;68.10;4.10;96618.00;;;;5075762;28;20428;-85
2023/01/21 08:13:59;;;;;;;11.40;7.80;;;4.40;68.10;4.10;96615.00;;;;5075605;28;20975;-86
2023/01/21 08:16:29;;;;;;;10.40;7.50;;;4.40;68.20;4.20;96608.00;;;;5075648;28;20522;-85
2023/01/21 08:18:56;;;;;;;12.20;8.30;;;4.40;68.10;4.20;96612.00;;;;5077039;28;20484;-86
2023/01/21 08:21:23;;;;;;;9.70;7.53;;;4.50;68.20;4.20;96624.00;;;;5075096;28;20870;-84
2023/01/21 08:23:50;;;;;;;10.30;7.47;;;4.50;68.10;4.20;96621.00;;;;5072158;28;20287;-85
2023/01/21 08:26:17;;;;;;;10.53;6.90;;;4.50;68.30;4.30;96623.00;;;;5070692;28;20861;-86
2023/01/21 08:28:46;;;;;;;9.70;7.80;;;4.50;68.20;4.30;96624.00;;;;5075853;28;20485;-86
2023/01/21 08:31:14;;;;;;;9.87;7.33;;;4.60;68.40;4.30;96628.00;;;;5075877;28;20426;-85
2023/01/21 08:33:41;;;;;;;10.10;7.03;;;4.60;68.20;4.30;96637.00;;;;5074718;28;20502;-85
2023/01/21 08:36:09;;;;;;;9.68;7.18;;;4.60;68.10;4.30;96634.00;;;;5068801;28;20431;-85
2023/01/21 08:38:37;;;;;;;9.73;6.93;;;4.60;68.10;4.30;96632.00;;;;5069376;28;20932;-85
2023/01/21 08:41:04;;;;;;;11.50;6.97;;;4.60;68.10;4.30;96631.00;;;;5076566;28;20429;-84
2023/01/21 08:43:32;;;;;;;9.73;6.80;;;4.60;68.20;4.40;96630.00;;;;5073110;28;20470;-85
2023/01/21 08:46:01;;;;;;;11.07;7.60;;;4.70;68.50;4.40;96625.00;;;;5077441;28;20553;-85
2023/01/21 08:48:29;;;;;;;11.27;7.07;;;4.70;68.40;4.40;96626.00;;;;5067526;28;20198;-85
2023/01/21 08:50:59;;;;;;;10.70;6.73;;;4.70;68.50;4.50;96629.00;;;;5056587;28;20201;-85
2023/01/21 08:53:26;;;;;;;12.13;8.00;;;4.70;68.60;4.50;96626.00;;;;5061822;28;20871;-85
2023/01/21 08:55:53;;;;;;;11.20;7.73;;;4.70;68.50;4.50;96625.00;;;;5093354;28;20191;-85
2023/01/21 08:58:21;;;;;;;10.47;7.63;;;4.80;68.60;4.50;96630.00;;;;5074804;28;20477;-85
2023/01/21 09:00:50;;;;;;;10.33;7.57;;;4.80;68.80;4.50;96634.00;;;;5077245;28;20533;-84
2023/01/21 09:03:18;;;;;;;9.83;7.87;;;4.80;68.90;4.60;96629.00;;;;5078793;28;20199;-85
2023/01/21 09:05:46;;;;;;;11.40;8.13;;;4.80;69.00;4.60;96630.00;;;;5069405;28;20517;-86
2023/01/21 09:08:13;;;;;;;10.13;7.73;;;4.80;68.90;4.60;96625.00;;;;5077802;28;20438;-85
2023/01/21 09:13:35;;;;;;;10.07;7.37;;;4.90;68.90;4.60;96640.00;;;;5085271;28;20453;-85
2023/01/21 09:16:08;;;;;;;12.20;7.67;;;4.90;68.80;4.60;96640.00;;;;5084182;28;20454;-86
2023/01/21 09:18:37;;;;;;;10.17;7.47;;;4.90;68.70;4.60;96646.00;;;;5088752;28;20552;-87
2023/01/21 09:21:06;;;;;;;10.07;7.67;;;4.90;68.20;4.70;96642.00;;;;5083863;28;20451;-87
2023/01/21 09:23:35;;;;;;;12.97;7.80;;;4.90;68.60;4.70;96640.00;;;;5068303;28;20219;-86
2023/01/21 09:26:05;;;;;;;11.10;8.03;;;4.90;68.80;4.70;96636.00;;;;5083186;28;20476;-85
2023/01/21 09:28:34;;;;;;;12.00;7.90;;;4.90;68.80;4.80;96633.00;;;;5083076;28;21051;-86
2023/01/21 09:31:04;;;;;;;10.43;7.60;;;5.00;68.90;4.80;96641.00;;;;5079357;28;21010;-85
2023/01/21 09:33:34;;;;;;;14.60;8.23;;;5.00;68.90;4.80;96629.00;;;;5078339;28;20533;-85
2023/01/21 09:36:06;;;;;;;12.50;8.33;;;5.00;69.00;4.80;96640.00;;;;5075433;28;20492;-85
2023/01/21 09:38:34;;;;;;;10.83;7.47;;;5.10;68.80;4.80;96639.00;;;;5075334;28;21013;-86
2023/01/21 09:41:17;;;;;;;11.17;7.43;;;5.10;68.50;4.90;96634.00;;;;5075196;28;20486;-86
2023/01/21 09:43:52;;;;;;;11.20;7.53;;;5.10;68.50;4.90;96640.00;;;;5077578;28;20591;-86
2023/01/21 09:46:33;;;;;;;10.47;7.37;;;5.10;69.30;4.90;96639.00;;;;5073266;28;20536;-86
2023/01/21 09:49:03;;;;;;;11.97;7.80;;;5.20;68.30;4.90;96645.00;;;;5064557;28;20215;-86
2023/01/21 09:51:47;;;;;;;10.43;7.80;;;5.20;69.00;4.90;96639.00;;;;5064175;28;20284;-86
2023/01/21 09:54:25;;;;;;;11.00;7.17;;;5.20;68.30;5.00;96643.00;;;;5076211;28;20184;-86
2023/01/21 09:57:29;;;;;;;12.17;7.27;;;5.20;68.90;5.00;96646.00;;;;5085862;28;20195;-88
2023/01/21 10:00:14;;;;;;;8.30;6.57;;;5.20;68.10;5.00;96639.00;;;;5074587;28;20314;-86
2023/01/21 10:02:53;;;;;;;10.60;6.97;;;5.30;68.10;5.00;96639.00;;;;5077648;28;20287;-86
2023/01/21 10:05:55;;;;;;;9.60;7.10;;;5.20;67.90;5.00;96645.00;;;;5087957;28;20199;-85
2023/01/21 10:08:37;;;;;;;11.23;7.43;;;5.30;67.60;5.00;96645.00;;;;5086323;28;20557;-85
2023/01/21 10:11:26;;;;;;;11.43;7.70;;;5.30;67.50;5.00;96650.00;;;;5092723;28;20199;-85
2023/01/21 10:14:12;;;;;;;8.80;5.97;;;5.30;67.40;5.00;96639.00;;;;5064610;28;20192;-87
2023/01/21 10:16:49;;;;;;;9.37;6.67;;;5.40;67.60;5.00;96651.00;;;;5076728;28;20695;-86
2023/01/21 10:19:23;;;;;;;10.27;7.03;;;5.30;67.50;5.00;96650.00;;;;5099075;28;20477;-86
2023/01/21 10:21:55;;;;;;;10.33;7.10;;;5.30;67.70;5.00;96655.00;;;;5075353;28;20446;-85
2023/01/21 10:24:32;;;;;;;9.53;6.73;;;5.30;67.60;5.00;96652.00;;;;5058539;28;20262;-85
2023/01/21 10:27:00;;;;;;;9.33;6.93;;;5.30;67.50;5.00;96656.00;;;;5075517;28;20282;-86
2023/01/21 10:29:28;;;;;;;9.17;7.10;;;5.30;67.40;5.00;96653.00;;;;5072558;28;20839;-86
2023/01/21 10:32:02;;;;;;;9.07;6.47;;;5.30;67.40;5.10;96651.00;;;;5076042;28;20772;-86
2023/01/21 10:34:32;;;;;;;10.00;6.23;;;5.40;67.60;5.20;96658.00;;;;5093917;28;20437;-86
2023/01/21 10:37:15;;;;;;;9.40;6.60;;;5.40;67.70;5.20;96644.00;;;;5092651;28;20191;-86
2023/01/21 10:39:57;;;;;;;11.17;7.23;;;5.40;67.60;5.30;96650.00;;;;5075500;28;20255;-86
2023/01/21 10:42:48;;;;;;;9.67;6.20;;;5.50;67.50;5.30;96654.00;;;;5074191;28;20284;-87
2023/01/21 10:45:31;;;;;;;9.63;6.27;;;5.50;67.40;5.30;96653.00;;;;5072571;28;20288;-86
2023/01/21 10:48:11;;;;;;;9.13;6.53;;;5.50;67.60;5.40;96650.00;;;;5071675;28;20209;-86
2023/01/21 10:50:53;;;;;;;9.73;6.70;;;5.60;67.50;5.40;96641.00;;;;5070900;28;20192;-86
2023/01/21 10:53:28;;;;;;;7.00;5.53;;;5.60;67.40;5.40;96647.00;;;;5070853;28;20273;-87
2023/01/21 10:56:16;;;;;;;6.43;5.53;;;5.60;67.40;5.50;96642.00;;;;5066181;28;20369;-87
2023/01/21 10:58:51;;;;;;;7.63;5.93;;;5.70;67.50;5.50;96645.00;;;;5076245;28;20223;-87
2023/01/21 11:01:25;;;;;;;8.17;5.37;;;5.70;67.40;5.50;96643.00;;;;5068748;28;20261;-87
2023/01/21 11:03:57;;;;;;;10.17;6.10;;;5.70;67.10;5.50;96644.00;;;;5063781;28;20212;-87
2023/01/21 11:06:26;;;;;;;8.80;6.10;;;5.70;67.00;5.50;96645.00;;;;5072618;28;20226;-87
2023/01/21 11:08:59;;;;;;;8.27;5.30;;;5.80;67.10;5.50;96641.00;;;;5077568;28;20291;-87
2023/01/21 11:11:31;;;;;;;10.13;6.60;;;5.70;66.90;5.40;96647.00;;;;5070638;28;20203;-87
2023/01/21 11:13:58;;;;;;;9.10;5.60;;;5.70;66.80;5.40;96637.00;;;;5072657;28;20188;-88
2023/01/21 11:16:41;;;;;;;8.07;5.60;;;5.70;66.60;5.30;96636.00;;;;5066435;28;20288;-88
2023/01/21 11:19:14;;;;;;;8.30;5.73;;;5.70;66.70;5.30;96638.00;;;;5091387;22;20317;-84
2023/01/21 11:21:58;;;;;;;7.07;5.33;;;5.60;66.90;5.30;96638.00;;;;5108365;28;20269;-86
2023/01/21 11:24:28;;;;;;;8.90;5.53;;;5.60;67.00;5.40;96628.00;;;;5111035;28;20838;-84
2023/01/21 11:27:00;;;;;;;7.97;5.30;;;5.60;67.00;5.40;96635.00;;;;5118518;28;20208;-83
2023/01/21 11:29:39;;;;;;;9.20;6.17;;;5.60;67.10;5.50;96628.00;;;;5118129;28;20190;-82
2023/01/21 11:32:23;;;;;;;6.90;5.13;;;5.70;67.30;5.50;96626.00;;;;5124571;28;20214;-83
2023/01/21 11:35:00;;;;;;;9.03;6.13;;;5.70;67.50;5.50;96630.00;;;;5123275;27;20210;-84
2023/01/21 11:37:30;;;;;;;8.17;5.83;;;5.70;67.40;5.60;96626.00;;;;5121083;27;20536;-80
2023/01/21 11:40:03;;;;;;;8.73;5.97;;;5.70;67.40;5.60;96626.00;;;;5125205;27;20267;-82